Flight Track Log - Related Links

Times and Time Zones

All times are in EST time to prevent confusion due to time zone crossing. See the ASQ5678 flight status page for this flight to view local times or setup timezone preferences in your user account.

Time Position Orientation Groundspeed Altitude Reporting Facility
EST Latitude Longitude Course Direction KTS MPH feet Rate Location/Type
Thu 06:09:21 PM 40.6500 -74.1833 217° Southwest 177 204 1,700  Level New York TRACON
Thu 06:10:21 PM 40.6167 -74.2167 217° Southwest 234 269 4,300 2,800 Climbing New York TRACON
Thu 06:11:21 PM 40.6167 -74.3167 270° West 248 285 7,300 2,800 Climbing New York TRACON
Thu 06:12:21 PM 40.6167 -74.4000 270° West 252 290 9,900 1,700 Climbing New York TRACON
Thu 06:13:21 PM 40.6333 -74.5000 282° West 301 346 10,700 1,095 Climbing New York TRACON
Thu 06:14:27 PM 40.6500 -74.6333 279° West 330 380 12,200 1,586 Climbing New York TRACON
Thu 06:15:41 PM 40.6581 -74.7786 274° West 332 382 14,400 1,422 Climbing New York Center
Thu 06:16:42 PM 40.6686 -74.8997 277° West 332 382 15,400 1,041 Climbing New York Center
Thu 06:17:42 PM 40.6772 -75.0097 276° West 338 389 16,500 1,100 Climbing New York Center
Thu 06:18:42 PM 40.6514 -75.1447 256° West 333 383 17,600 958 Climbing New York Center
Thu 06:19:41 PM 40.6036 -75.2539 240° Southwest 338 389 18,400 1,109 Climbing New York Center
Thu 06:20:41 PM 40.5533 -75.3653 239° Southwest 350 403 19,800 1,450 Climbing New York Center
Thu 06:21:41 PM 40.5033 -75.4739 239° Southwest 350 403 21,300 1,350 Climbing New York Center
Thu 06:22:41 PM 40.4553 -75.5797 239° Southwest 345 397 22,500 1,100 Climbing New York Center
Thu 06:23:41 PM 40.4050 -75.6881 239° Southwest 345 397 23,500 992 Climbing New York Center
Thu 06:24:42 PM 40.3544 -75.7989 239° Southwest 345 397 24,500 992 Climbing New York Center
Thu 06:25:42 PM 40.3042 -75.9014 237° Southwest 355 409 25,500 1,008 Climbing New York Center
Thu 06:26:41 PM 40.2514 -76.0089 237° Southwest 355 409 26,500 1,008 Climbing New York Center
Thu 06:27:41 PM 40.2008 -76.1164 238° Southwest 355 409 27,500 1,000 Climbing New York Center
Thu 06:28:41 PM 40.1494 -76.2347 240° Southwest 349 402 28,500 1,000 Climbing New York Center
Thu 06:29:41 PM 40.1058 -76.3208 237° Southwest 354 407 29,500 1,050 Climbing New York Center
Thu 06:32:01 PM 39.9825 -76.5906 239° Southwest 341 392 32,000 1,050 Climbing Washington Center
Thu 06:33:01 PM 39.9336 -76.6981 239° Southwest 359 413 33,000 942 Climbing Washington Center
Thu 06:34:02 PM 39.8847 -76.7947 237° Southwest 365 420 33,900 934 Climbing Washington Center
Thu 06:35:03 PM 39.8358 -76.9019 239° Southwest 365 420 34,900 984 Climbing Washington Center
Thu 06:36:04 PM 39.7844 -77.0092 238° Southwest 360 414 35,900 559 Climbing Washington Center
Thu 06:37:01 PM 39.7331 -77.1186 239° Southwest 355 409 36,000 51 Climbing Washington Center
Thu 06:38:02 PM 39.6797 -77.2308 238° Southwest 355 409 36,000  Level Washington Center
Thu 06:39:02 PM 39.6281 -77.3400 238° Southwest 355 409 36,000  Level Washington Center
Thu 06:40:03 PM 39.5764 -77.4492 238° Southwest 365 420 36,000  Level Washington Center
Thu 06:41:03 PM 39.5247 -77.5608 239° Southwest 365 420 36,000  Level Washington Center
Thu 06:42:01 PM 39.4708 -77.6669 237° Southwest 365 420 36,000  Level Washington Center
Thu 06:43:02 PM 39.4208 -77.7756 239° Southwest 360 414 36,000  Level Washington Center
Thu 06:44:03 PM 39.3711 -77.8842 239° Southwest 355 409 36,000  Level Washington Center
Thu 06:45:03 PM 39.3292 -77.9956 244° Southwest 350 403 36,000  Level Washington Center
Thu 06:46:04 PM 39.2831 -78.1067 242° Southwest 345 397 36,000  Level Washington Center
Thu 06:47:01 PM 39.2369 -78.2231 243° Southwest 357 411 36,000  Level Washington Center
Thu 06:48:02 PM 39.1886 -78.3364 241° Southwest 363 418 36,000  Level Washington Center
Thu 06:49:02 PM 39.1442 -78.4500 243° Southwest 363 418 36,000  Level Washington Center
Thu 06:50:02 PM 39.0997 -78.5631 243° Southwest 363 418 36,000  Level Washington Center
Thu 06:51:03 PM 39.0572 -78.6792 245° Southwest 363 418 36,000  Level Washington Center
Thu 06:52:03 PM 39.0375 -78.7986 258° West 353 406 36,000  Level Washington Center
Thu 06:53:01 PM 39.0197 -78.9181 259° West 345 397 36,000  Level Washington Center
Thu 06:54:02 PM 38.9994 -79.0400 258° West 350 403 36,000  Level Washington Center
Thu 06:55:01 PM 38.9792 -79.1619 258° West 350 403 36,000  Level Washington Center
Thu 06:56:01 PM 38.9611 -79.2836 259° West 355 409 36,000 -198 Level Washington Center
Thu 06:57:02 PM 38.9406 -79.4056 258° West 355 409 35,600 -492 Descending Washington Center
Thu 06:58:03 PM 38.9200 -79.5272 258° West 355 409 35,000 -303 Descending Washington Center
Thu 06:59:01 PM 38.9006 -79.6675 260° West 369 425 35,000  Level Washington Center
Thu 07:00:01 PM 38.8797 -79.7917 258° West 369 425 35,000  Level Washington Center
Thu 07:01:03 PM 38.8611 -79.9053 258° West 369 425 35,000  Level Washington Center
Thu 07:02:03 PM 38.8400 -80.0242 257° West 363 418 35,000  Level Washington Center
Thu 07:03:17 PM 38.8167 -80.1658 258° West 353 406 35,000  Level Indianapolis Center
Thu 07:04:19 PM 38.8144 -80.3072 269° West 331 381 35,000  Level Indianapolis Center
Thu 07:05:21 PM 38.8111 -80.4222 268° West 324 373 35,000  Level Indianapolis Center
Thu 07:06:22 PM 38.8083 -80.5378 268° West 324 373 35,000  Level Indianapolis Center
Thu 07:07:24 PM 38.8047 -80.6533 268° West 324 373 35,000  Level Indianapolis Center
Thu 07:08:26 PM 38.7900 -80.7681 261° West 328 377 35,000  Level Indianapolis Center
Thu 07:09:28 PM 38.7725 -80.8831 259° West 329 379 35,000  Level Indianapolis Center
Thu 07:10:29 PM 38.7556 -80.9981 259° West 328 377 35,000  Level Indianapolis Center
Thu 07:11:31 PM 38.7386 -81.1153 260° West 333 383 35,000 -387 Level Indianapolis Center
Thu 07:12:33 PM 38.7181 -81.2542 259° West 332 382 34,200 -585 Descending Indianapolis Center
Thu 07:13:34 PM 38.7011 -81.3683 259° West 326 375 33,800 -732 Descending Indianapolis Center
Thu 07:14:36 PM 38.6825 -81.4875 259° West 327 376 32,700 -1,016 Descending Indianapolis Center
Thu 07:15:38 PM 38.6656 -81.6033 259° West 330 380 31,700 -1,024 Descending Indianapolis Center
Thu 07:16:39 PM 38.6467 -81.7294 259° West 342 394 30,600 -1,024 Descending Indianapolis Center
Thu 07:17:41 PM 38.6278 -81.8500 259° West 344 396 29,600 -968 Descending Indianapolis Center
Thu 07:18:43 PM 38.6081 -81.9736 258° West 352 405 28,600 -1,122 Descending Indianapolis Center
Thu 07:19:44 PM 38.5881 -82.1019 259° West 365 420 27,300 -1,415 Descending Indianapolis Center
Thu 07:20:46 PM 38.5675 -82.2361 259° West 380 437 25,700 -1,463 Descending Indianapolis Center
Thu 07:21:47 PM 38.5458 -82.3706 258° West 387 445 24,300 -829 Descending Indianapolis Center
Thu 07:22:49 PM 38.5222 -82.5181 258° West 384 442 24,000 -681 Descending Indianapolis Center
Thu 07:24:00 PM 38.4874 -82.6528 257° West  Level FlightAware Approximate
Thu 07:24:52 PM 38.4794 -82.7783 257° West 371 427 22,200  Level Indianapolis Center
Thu 07:25:54 PM 38.4717 -82.9144 266° West 386 444 22,000 -97 Descending Indianapolis Center
Thu 07:26:56 PM 38.4953 -83.0731 281° West 390 449 22,000  Level Indianapolis Center
Thu 07:27:57 PM 38.5147 -83.2081 280° West 388 447 22,000 -780 Level Indianapolis Center
Thu 07:28:59 PM 38.5333 -83.3403 280° West 381 438 20,400 -1,984 Descending Indianapolis Center
Thu 07:30:01 PM 38.5511 -83.4692 280° West 373 429 17,900 -2,341 Descending Indianapolis Center
Thu 07:31:02 PM 38.5686 -83.5942 280° West 361 415 15,600 -2,488 Descending Indianapolis Center
Thu 07:32:04 PM 38.5839 -83.7103 280° West 338 389 12,800 -2,565 Descending Indianapolis Center
Thu 07:33:06 PM 38.6036 -83.8483 280° West 337 388 10,300 -1,366 Descending Indianapolis Center
Thu 07:34:07 PM 38.6303 -83.9567 288° West 328 377 10,000 -146 Descending Indianapolis Center
Thu 07:35:09 PM 38.6750 -84.0414 304° West 334 384 10,000  Level Indianapolis Center
Thu 07:36:10 PM 38.7250 -84.1392 303° West 329 379 10,000  Level Indianapolis Center
Thu 07:37:12 PM 38.7839 -84.2525 304° West 320 368 10,000  Level Indianapolis Center
Thu 07:38:13 PM 38.8339 -84.3483 304° West 323 372 10,000  Level Indianapolis Center
Thu 07:39:15 PM 38.8847 -84.4481 303° West 331 381 10,000 -48 Level Indianapolis Center
Thu 07:40:17 PM 38.9444 -84.5286 314° West 309 356 9,900 -976 Descending Indianapolis Center
Thu 07:41:18 PM 39.0250 -84.5400 354° North 296 341 8,000 -2,000 Descending Indianapolis Center
Thu 07:42:20 PM 39.1044 -84.5414 359° North 289 333 5,800 -2,049 Descending Indianapolis Center
Thu 07:43:21 PM 39.1878 -84.5450 358° North 283 326 3,800 -913 Descending Indianapolis Center
Thu 07:45:24 PM 39.2167 -84.6500 290° West 198 228 3,000 -262 Descending Cincinnati TRACON
Thu 07:46:24 PM 39.1667 -84.6500 180° South 190 219 3,000 -378 Level Cincinnati TRACON
Thu 07:47:31 PM 39.1167 -84.6500 180° South 106 122 2,200 -661 Descending Cincinnati TRACON
Thu 07:48:31 PM 39.0833 -84.6500 180° South 117 135 1,600 -600 Descending Cincinnati TRACON
Thu 07:50:00 PM 39.0488 -84.6678 195° South  Level Estimated
Thu 07:57:00 PM 39.0488 -84.6678 195° South  Level Estimated

Login

Don't have an account? Register now (free) for customized features, flight alerts, and more!